»·PEaware :: N871RO KTVL-KOLS

N871RO :: KTVL-KOLS

FLIGHT INFORMATION

Flight Status: Arrived
Operator: Privately registered:
United States
More flights under this callsign
Pilot: Andrew P. (3132)
Aircraft: BRITISH AERO BAe-125-700/800
(H25B)
More flights by this aircraft type
Origin: KTVL Lake Tahoe
United States
Destination: KOLS Nogales Intl
United States
More flights between these airports :: More routes between these airports
Route: +TILTS SONNY J84 BABIT J92 VYLLA
File this flight plan on PilotEdge
Remarks:
Altitude:
(Current/Filed)
34,000ft
Speed:
(Current/Filed)
460kts
Departed: 27-Jul-16 06:01 AM
Arrived: 27-Jul-16 07:37 AM
Distance/Time
Traveled:
608nm/1:35
Distance/Time
To Go:
Arrived

Flight Plot

Page will automatically refresh every two minutes.


Map Options




Map Legend


Flown Route
Filed Route
Departure Airport
Arrival Airport
Navaid (VOR, NDB)
Fix

Horizontal Profiles

Position Reports

Time Latitude Longitude Heading Altitude Ground
Speed
27-Jul-16 05:52 38.887758 -119.997316 192 6269ft 0kts
27-Jul-16 05:53 38.886805 -119.997595 192 6269ft 5kts
27-Jul-16 05:54 38.883695 -119.998316 11 6269ft 9kts
27-Jul-16 05:55 38.884572 -119.998068 12 6269ft 0kts
27-Jul-16 05:56 38.889155 -119.996706 11 6269ft 86kts
27-Jul-16 05:57 38.929261 -119.985537 9 7039ft 174kts
27-Jul-16 05:58 38.972128 -119.963650 80 8723ft 189kts
27-Jul-16 05:59 38.930561 -119.933855 183 10155ft 212kts
27-Jul-16 06:00 38.868168 -119.921328 156 11738ft 247kts
27-Jul-16 06:01 38.815326 -119.852576 127 13187ft 299kts
27-Jul-16 06:02 38.762662 -119.757214 126 14625ft 356kts
27-Jul-16 06:03 38.700677 -119.645346 126 16065ft 409kts
27-Jul-16 06:04 38.620642 -119.537463 154 17867ft 434kts
27-Jul-16 06:05 38.501646 -119.507199 165 20314ft 439kts
27-Jul-16 06:06 38.403632 -119.417908 125 22927ft 441kts
27-Jul-16 06:07 38.373045 -119.270371 85 25534ft 434kts
27-Jul-16 06:08 38.395698 -119.121860 79 28129ft 416kts
27-Jul-16 06:09 38.418000 -118.979139 78 30100ft 405kts
27-Jul-16 06:10 38.439967 -118.840710 78 31886ft 392kts
27-Jul-16 06:11 38.461106 -118.707013 78 33672ft 374kts
27-Jul-16 06:12 38.481664 -118.576089 78 34283ft 387kts
27-Jul-16 06:13 38.498628 -118.435061 95 34284ft 416kts
27-Jul-16 06:14 38.444779 -118.304501 139 34303ft 433kts
27-Jul-16 06:15 38.355150 -118.195080 137 34328ft 455kts
27-Jul-16 06:15 38.277536 -118.100339 137 34298ft 469kts
27-Jul-16 06:17 38.165224 -117.964610 137 34240ft 482kts
27-Jul-16 06:17 38.083840 -117.866757 137 34245ft 486kts
27-Jul-16 06:19 37.963684 -117.736416 148 34241ft 487kts
27-Jul-16 06:20 37.870647 -117.655825 146 34738ft 478kts
27-Jul-16 06:21 37.761635 -117.561555 147 35242ft 474kts
27-Jul-16 06:22 37.651815 -117.467183 147 35242ft 479kts
27-Jul-16 06:23 37.540949 -117.372298 147 35264ft 482kts
27-Jul-16 06:24 37.429402 -117.277187 147 35258ft 484kts
27-Jul-16 06:25 37.317242 -117.181893 147 35213ft 487kts
27-Jul-16 06:26 37.204542 -117.086500 147 35180ft 488kts
27-Jul-16 06:27 37.091527 -116.991190 147 35164ft 489kts
27-Jul-16 06:28 36.978702 -116.896386 147 35141ft 489kts
27-Jul-16 06:29 36.865281 -116.801429 147 35120ft 490kts
27-Jul-16 06:30 36.772423 -116.678885 116 35107ft 496kts
27-Jul-16 06:31 36.708893 -116.525808 118 35097ft 496kts
27-Jul-16 06:32 36.644539 -116.373106 118 35085ft 497kts
27-Jul-16 06:33 36.580179 -116.220307 118 35079ft 497kts
27-Jul-16 06:34 36.515622 -116.067621 118 35077ft 498kts
27-Jul-16 06:35 36.450846 -115.915111 118 35071ft 498kts
27-Jul-16 06:36 36.385823 -115.762729 118 35062ft 498kts
27-Jul-16 06:37 36.320523 -115.610407 118 35042ft 499kts
27-Jul-16 06:38 36.254969 -115.458204 118 35006ft 500kts
27-Jul-16 06:39 36.189149 -115.306088 118 34972ft 500kts
27-Jul-16 06:40 36.123154 -115.154270 118 34954ft 500kts
27-Jul-16 06:41 36.057416 -115.003708 118 34959ft 493kts
27-Jul-16 06:42 35.992395 -114.855520 119 34987ft 486kts
27-Jul-16 06:43 35.919647 -114.716370 124 34986ft 475kts
27-Jul-16 06:44 35.847745 -114.581631 123 34980ft 465kts
27-Jul-16 06:45 35.777381 -114.449030 123 34995ft 461kts
27-Jul-16 06:46 35.705898 -114.314592 123 35005ft 475kts
27-Jul-16 06:47 35.632580 -114.177168 123 35023ft 483kts
27-Jul-16 06:48 35.558089 -114.038110 123 35052ft 488kts
27-Jul-16 06:49 35.482877 -113.898277 123 35090ft 491kts
27-Jul-16 06:50 35.407167 -113.758109 123 35117ft 493kts
27-Jul-16 06:51 35.331055 -113.617768 124 35127ft 494kts
27-Jul-16 06:52 35.254631 -113.477416 124 35152ft 494kts
27-Jul-16 06:53 35.178222 -113.337657 124 35161ft 495kts
27-Jul-16 06:54 35.101375 -113.197656 124 35204ft 495kts
27-Jul-16 06:55 35.024361 -113.057908 124 35242ft 495kts
27-Jul-16 06:56 34.947180 -112.918497 124 35273ft 495kts
27-Jul-16 06:57 34.869806 -112.779212 124 35290ft 495kts
27-Jul-16 06:58 34.792184 -112.640032 124 35292ft 496kts
27-Jul-16 06:59 34.709456 -112.505701 139 35282ft 495kts
27-Jul-16 07:00 34.586510 -112.434635 162 35278ft 492kts
27-Jul-16 07:01 34.456708 -112.380546 162 35262ft 492kts
27-Jul-16 07:02 34.326607 -112.327525 162 35214ft 493kts
27-Jul-16 07:03 34.197366 -112.275280 162 35150ft 480kts
27-Jul-16 07:04 34.073411 -112.225370 162 36763ft 447kts
27-Jul-16 07:05 33.954894 -112.177843 162 37042ft 455kts
27-Jul-16 07:06 33.833019 -112.129091 162 37004ft 465kts
27-Jul-16 07:07 33.708981 -112.079616 162 36982ft 471kts
27-Jul-16 07:08 33.583730 -112.029749 161 36981ft 475kts
27-Jul-16 07:09 33.463344 -111.962258 155 36908ft 479kts
27-Jul-16 07:10 33.343160 -111.893756 155 35699ft 474kts
27-Jul-16 07:11 33.222509 -111.825597 155 34088ft 483kts
27-Jul-16 07:11 33.119803 -111.767714 155 32673ft 488kts
27-Jul-16 07:13 32.981343 -111.689998 155 30390ft 462kts
27-Jul-16 07:13 32.884712 -111.635962 155 28719ft 456kts
27-Jul-16 07:14 32.770729 -111.572394 154 26725ft 450kts
27-Jul-16 07:16 32.657609 -111.509486 154 24723ft 446kts
27-Jul-16 07:17 32.545457 -111.447291 154 22721ft 442kts
27-Jul-16 07:18 32.434268 -111.385802 153 20967ft 436kts
27-Jul-16 07:19 32.324967 -111.325520 153 19364ft 430kts
27-Jul-16 07:20 32.216775 -111.266018 153 17762ft 426kts
27-Jul-16 07:21 32.109342 -111.207067 153 16014ft 425kts
27-Jul-16 07:22 32.001636 -111.148129 153 14113ft 426kts
27-Jul-16 07:23 31.899975 -111.092669 154 12201ft 372kts
27-Jul-16 07:24 31.806568 -111.041901 154 10305ft 385kts
27-Jul-16 07:25 31.720605 -110.995199 153 8945ft 297kts
27-Jul-16 07:26 31.640300 -110.990315 186 8947ft 294kts
27-Jul-16 07:27 31.566566 -110.959244 148 8552ft 279kts
27-Jul-16 07:28 31.505385 -110.914865 147 7236ft 241kts
27-Jul-16 07:29 31.450403 -110.874704 148 5759ft 221kts
27-Jul-16 07:30 31.401433 -110.876578 156 4692ft 150kts
27-Jul-16 07:31 31.417497 -110.848246 46 3960ft 59kts
27-Jul-16 07:32 31.418604 -110.846854 46 3960ft 0kts
27-Jul-16 07:33 31.418604 -110.846854 46 3960ft 0kts
27-Jul-16 07:34 31.418604 -110.846854 46 3960ft 0kts
27-Jul-16 07:35 31.418604 -110.846854 46 3960ft 0kts
27-Jul-16 07:36 31.418604 -110.846854 46 3960ft 0kts
27-Jul-16 07:37 31.418634 -110.846818 46 3960ft 0kts
27-Jul-16 07:38 31.418950 -110.846420 46 3960ft 6kts
27-Jul-16 07:39 31.420187 -110.844861 60 3960ft 9kts
27-Jul-16 07:40 31.407127 -110.863075 253 4218ft 166kts
27-Jul-16 07:41 31.439254 -110.906327 309 6635ft 207kts
27-Jul-16 07:42 31.473264 -110.969604 318 9092ft 253kts
27-Jul-16 07:43 31.548055 -110.985668 355 11549ft 302kts
27-Jul-16 07:44 31.639896 -110.995474 355 13988ft 359kts
27-Jul-16 07:45 31.746969 -111.006729 355 16339ft 411kts
27-Jul-16 07:46 31.861696 -111.028719 336 16420ft 424kts

Navigation Log

Ident Type
Flight plan parsing failed, navigation log unavailable